Time;durP1;ratioP1;P1;durP2;ratioP2;P2;SDS_P1;SDS_P2;PMS_P1;PMS_P2;Temp;Humidity;BMP_temperature;BMP_pressure;BME280_temperature;BME280_humidity;BME280_pressure;Samples;Min_cycle;Max_cycle;Signal;HPM_P1;HPM_P2
2023/07/21 00:01:49;;;;;;;2.43;2.00;;;15.40;99.90;;;;;;5054068;28;20237;-66
2023/07/21 00:04:17;;;;;;;4.00;1.40;;;15.40;99.90;;;;;;5054081;28;20457;-66
2023/07/21 00:06:43;;;;;;;2.57;1.70;;;15.40;99.90;;;;;;5049209;28;20177;-66
2023/07/21 00:09:09;;;;;;;4.90;2.10;;;15.40;99.90;;;;;;5054130;28;20419;-67
2023/07/21 00:11:38;;;;;;;2.20;2.00;;;15.40;99.90;;;;;;5034189;28;20698;-67
2023/07/21 00:14:05;;;;;;;1.77;1.30;;;15.30;99.90;;;;;;5051864;28;20423;-67
2023/07/21 00:16:33;;;;;;;2.53;1.63;;;15.30;99.90;;;;;;5050506;28;20421;-68
2023/07/21 00:19:00;;;;;;;2.43;1.40;;;15.20;99.90;;;;;;5051543;28;20452;-66
2023/07/21 00:21:26;;;;;;;2.00;1.30;;;15.20;99.90;;;;;;5049923;28;20449;-67
2023/07/21 00:23:52;;;;;;;4.33;1.50;;;15.20;99.90;;;;;;5050694;28;20475;-66
2023/07/21 00:26:17;;;;;;;1.83;1.30;;;15.20;99.90;;;;;;5032285;28;20576;-66
2023/07/21 00:28:43;;;;;;;1.77;1.47;;;15.20;99.90;;;;;;5047577;28;20209;-66
2023/07/21 00:31:10;;;;;;;2.93;1.83;;;15.10;99.90;;;;;;5051526;28;20208;-70
2023/07/21 00:33:36;;;;;;;2.50;1.60;;;15.10;99.90;;;;;;5048540;28;20944;-70
2023/07/21 00:36:03;;;;;;;3.83;1.80;;;15.10;99.90;;;;;;5050998;28;21158;-69
2023/07/21 00:38:29;;;;;;;2.27;1.60;;;15.00;99.90;;;;;;5047766;28;20411;-68
2023/07/21 00:40:55;;;;;;;5.60;1.53;;;14.90;99.90;;;;;;5049360;28;21169;-71
2023/07/21 00:43:20;;;;;;;1.60;1.50;;;14.90;99.90;;;;;;5049461;28;21096;-68
2023/07/21 00:45:46;;;;;;;2.90;1.87;;;15.00;99.90;;;;;;5039107;28;20167;-68
2023/07/21 00:48:15;;;;;;;3.37;1.70;;;14.90;99.90;;;;;;5052165;28;20175;-67
2023/07/21 00:50:50;;;;;;;3.90;1.80;;;15.00;99.90;;;;;;5046548;28;20446;-68
2023/07/21 00:53:16;;;;;;;3.37;1.63;;;14.80;99.90;;;;;;5053268;28;20444;-68
2023/07/21 00:55:42;;;;;;;3.37;1.97;;;14.80;99.90;;;;;;5053541;28;20472;-68
2023/07/21 00:58:09;;;;;;;2.40;2.17;;;14.80;99.90;;;;;;5041338;28;20414;-69
2023/07/21 01:00:36;;;;;;;3.50;2.80;;;14.70;99.90;;;;;;5040838;28;20469;-69
2023/07/21 01:03:03;;;;;;;3.10;2.27;;;14.70;99.90;;;;;;5047046;28;20845;-69
2023/07/21 01:05:36;;;;;;;6.70;3.43;;;14.70;99.90;;;;;;5047784;28;20413;-67
2023/07/21 01:08:07;;;;;;;4.80;3.00;;;14.70;99.90;;;;;;5050952;28;20422;-68
2023/07/21 01:10:35;;;;;;;2.80;2.30;;;14.80;99.90;;;;;;5048106;28;20947;-68
2023/07/21 01:13:02;;;;;;;3.10;1.83;;;14.70;99.90;;;;;;5043941;28;20433;-69
2023/07/21 01:15:28;;;;;;;2.60;1.63;;;14.70;99.90;;;;;;5040227;28;20437;-67
2023/07/21 01:17:56;;;;;;;2.80;1.70;;;14.70;99.90;;;;;;5040683;28;20416;-68
2023/07/21 01:20:24;;;;;;;4.13;3.50;;;14.60;99.90;;;;;;5054514;28;20417;-68
2023/07/21 01:23:08;;;;;;;2.20;1.30;;;14.60;99.90;;;;;;5050978;28;20907;-67
2023/07/21 01:25:38;;;;;;;2.90;1.57;;;14.50;99.90;;;;;;5052438;28;20791;-70
2023/07/21 01:28:06;;;;;;;7.50;2.13;;;14.50;99.90;;;;;;5045506;28;20406;-70
2023/07/21 01:30:32;;;;;;;3.20;1.93;;;14.60;99.90;;;;;;5032729;28;20737;-68
2023/07/21 01:32:59;;;;;;;3.60;2.13;;;14.60;99.90;;;;;;5049316;28;20438;-68
2023/07/21 01:35:28;;;;;;;1.80;1.53;;;14.60;99.90;;;;;;5034338;28;20423;-67
2023/07/21 01:37:55;;;;;;;3.80;1.30;;;14.50;99.90;;;;;;5050433;28;20413;-68
2023/07/21 01:40:23;;;;;;;3.00;1.80;;;14.50;99.90;;;;;;5035015;28;20447;-68
2023/07/21 01:42:50;;;;;;;4.30;1.90;;;14.40;99.90;;;;;;5047613;28;20457;-66
2023/07/21 01:45:16;;;;;;;2.43;2.23;;;14.40;99.90;;;;;;5050921;28;20432;-66
2023/07/21 01:47:44;;;;;;;1.90;1.80;;;14.40;99.90;;;;;;5026080;28;20424;-66
2023/07/21 01:50:13;;;;;;;3.20;1.87;;;14.40;99.90;;;;;;5055914;28;20201;-66
2023/07/21 01:52:39;;;;;;;3.10;1.80;;;14.40;99.90;;;;;;5052626;28;20846;-66
2023/07/21 01:55:10;;;;;;;1.77;1.63;;;14.40;99.90;;;;;;5045452;28;21089;-66
2023/07/21 01:57:38;;;;;;;4.40;1.63;;;14.40;99.90;;;;;;5051431;28;20824;-67
2023/07/21 02:00:10;;;;;;;1.70;1.60;;;14.40;99.90;;;;;;5050282;28;20892;-67
2023/07/21 02:02:38;;;;;;;4.23;1.80;;;14.30;99.90;;;;;;5053122;28;20483;-66
2023/07/21 02:05:05;;;;;;;3.53;1.67;;;14.20;99.90;;;;;;5043457;28;20421;-68
2023/07/21 02:07:31;;;;;;;2.03;1.27;;;14.20;99.90;;;;;;5032825;28;20413;-65
2023/07/21 02:09:58;;;;;;;2.43;1.40;;;14.30;99.90;;;;;;5029942;28;20980;-67
2023/07/21 02:12:23;;;;;;;2.70;1.47;;;14.30;99.90;;;;;;5050509;28;20453;-66
2023/07/21 02:14:49;;;;;;;4.00;1.80;;;14.30;99.90;;;;;;5021948;28;20508;-67
2023/07/21 02:17:15;;;;;;;1.80;1.60;;;14.30;99.90;;;;;;5047833;28;20592;-67
2023/07/21 02:19:40;;;;;;;5.40;2.77;;;14.30;99.90;;;;;;5051927;28;20187;-67
2023/07/21 02:22:06;;;;;;;2.60;2.00;;;14.40;99.90;;;;;;5046123;28;20211;-67
2023/07/21 02:24:32;;;;;;;2.10;1.90;;;14.30;99.90;;;;;;5040335;28;20177;-66
2023/07/21 02:26:59;;;;;;;2.30;1.80;;;14.30;99.90;;;;;;5048865;28;20415;-67
2023/07/21 02:29:25;;;;;;;3.10;1.50;;;14.30;99.90;;;;;;5053611;28;20179;-66
2023/07/21 02:31:50;;;;;;;2.10;1.73;;;14.30;99.90;;;;;;5055817;28;20510;-66
2023/07/21 02:34:16;;;;;;;2.63;2.03;;;14.20;99.90;;;;;;5050012;28;20269;-67
2023/07/21 02:36:42;;;;;;;4.73;1.60;;;14.10;99.90;;;;;;5029243;28;20182;-67
2023/07/21 02:39:07;;;;;;;2.93;1.50;;;14.10;99.90;;;;;;5044398;28;20237;-66
2023/07/21 02:41:33;;;;;;;3.70;2.30;;;14.20;99.90;;;;;;5043342;28;20198;-69
2023/07/21 02:43:59;;;;;;;1.60;1.50;;;14.10;99.90;;;;;;5049871;28;20698;-66
2023/07/21 02:46:25;;;;;;;2.50;1.67;;;14.10;99.90;;;;;;5057523;28;20198;-65
2023/07/21 02:48:51;;;;;;;1.70;1.40;;;14.10;99.90;;;;;;5033987;28;20457;-66
2023/07/21 02:51:16;;;;;;;2.63;1.73;;;14.10;99.90;;;;;;5046259;28;20247;-67
2023/07/21 02:53:42;;;;;;;3.53;1.57;;;14.10;99.90;;;;;;5047132;28;20189;-67
2023/07/21 02:56:08;;;;;;;1.63;1.37;;;14.10;99.90;;;;;;5054076;28;20295;-67
2023/07/21 02:58:33;;;;;;;3.80;2.10;;;14.10;99.90;;;;;;5052279;28;20174;-67
2023/07/21 03:01:03;;;;;;;5.40;2.00;;;14.10;99.90;;;;;;5048091;28;20524;-67
2023/07/21 03:03:29;;;;;;;1.90;1.70;;;14.10;99.90;;;;;;5049186;28;20578;-67
2023/07/21 03:05:54;;;;;;;2.60;1.90;;;14.10;99.90;;;;;;5049847;28;20425;-68
2023/07/21 03:08:26;;;;;;;2.00;1.80;;;14.10;99.90;;;;;;5042959;28;20434;-67
2023/07/21 03:10:53;;;;;;;2.80;1.90;;;14.20;99.90;;;;;;5053649;28;20262;-65
2023/07/21 03:13:20;;;;;;;2.07;1.80;;;14.20;99.90;;;;;;5037318;28;20430;-66
2023/07/21 03:15:46;;;;;;;1.93;1.43;;;14.20;99.90;;;;;;5052129;28;20436;-67
2023/07/21 03:18:12;;;;;;;2.73;1.77;;;14.30;99.90;;;;;;5054553;28;20409;-66
2023/07/21 03:20:37;;;;;;;4.70;1.97;;;14.20;99.90;;;;;;5059116;28;20424;-67
2023/07/21 03:23:03;;;;;;;7.07;1.87;;;14.20;99.90;;;;;;5050697;28;20220;-67
2023/07/21 03:25:31;;;;;;;4.50;2.60;;;14.20;99.90;;;;;;5055752;28;20190;-66
2023/07/21 03:27:56;;;;;;;3.13;1.73;;;14.20;99.90;;;;;;5053056;28;20653;-67
2023/07/21 03:30:22;;;;;;;3.40;2.00;;;14.20;99.90;;;;;;5048203;28;20460;-67
2023/07/21 03:32:47;;;;;;;3.70;2.20;;;14.20;99.90;;;;;;5055114;28;20198;-66
2023/07/21 03:35:14;;;;;;;2.30;1.90;;;14.20;99.90;;;;;;5052729;28;20584;-67
2023/07/21 03:37:40;;;;;;;2.87;1.60;;;14.30;99.90;;;;;;5033312;28;20179;-67
2023/07/21 03:40:07;;;;;;;2.47;1.60;;;14.30;99.90;;;;;;5051962;28;20500;-66
2023/07/21 03:42:34;;;;;;;2.10;1.90;;;14.40;99.90;;;;;;5053596;28;20302;-67
2023/07/21 03:45:04;;;;;;;4.63;2.53;;;14.40;99.90;;;;;;5045515;28;20437;-66
2023/07/21 03:47:36;;;;;;;1.77;1.60;;;14.40;99.90;;;;;;5049961;28;20561;-66
2023/07/21 03:50:02;;;;;;;3.60;2.03;;;14.50;99.90;;;;;;5053795;28;20489;-66
2023/07/21 03:52:28;;;;;;;2.37;1.83;;;14.50;99.90;;;;;;5055994;28;20425;-65
2023/07/21 03:54:54;;;;;;;2.63;2.17;;;14.60;99.90;;;;;;5050620;28;20807;-66
2023/07/21 03:57:20;;;;;;;2.47;1.80;;;14.60;99.90;;;;;;5055328;28;20183;-66
2023/07/21 03:59:49;;;;;;;4.97;2.03;;;14.70;99.90;;;;;;5050271;28;20428;-67
2023/07/21 04:02:17;;;;;;;2.70;2.00;;;14.70;99.90;;;;;;5043898;28;20433;-67
2023/07/21 04:04:45;;;;;;;1.70;1.60;;;14.70;99.90;;;;;;5049747;28;20417;-67
2023/07/21 04:07:11;;;;;;;3.10;2.20;;;14.80;99.90;;;;;;5037172;28;20429;-67
2023/07/21 04:09:37;;;;;;;2.13;1.93;;;14.90;99.90;;;;;;5056118;28;20421;-66
2023/07/21 04:12:04;;;;;;;2.40;2.20;;;15.00;99.90;;;;;;5043936;28;20422;-66
2023/07/21 04:14:30;;;;;;;2.20;2.00;;;15.10;99.90;;;;;;5048359;28;20206;-67
2023/07/21 04:16:56;;;;;;;4.63;2.07;;;15.20;99.90;;;;;;5054479;28;20440;-66
2023/07/21 04:19:21;;;;;;;3.27;1.67;;;15.20;99.90;;;;;;5050225;28;20203;-66
2023/07/21 04:21:47;;;;;;;2.83;2.10;;;15.30;99.90;;;;;;5023122;28;20547;-66
2023/07/21 04:24:13;;;;;;;3.10;1.90;;;15.40;99.90;;;;;;5042727;28;20207;-66
2023/07/21 04:26:39;;;;;;;3.33;1.93;;;15.40;99.90;;;;;;5050003;28;20179;-66
2023/07/21 04:29:06;;;;;;;3.90;2.00;;;15.50;99.90;;;;;;5048653;28;20424;-66
2023/07/21 04:31:31;;;;;;;3.17;1.90;;;15.60;99.90;;;;;;5054654;28;20194;-66
2023/07/21 04:33:57;;;;;;;2.57;1.60;;;15.70;99.90;;;;;;5049778;28;20433;-67
2023/07/21 04:36:23;;;;;;;4.60;1.90;;;15.80;99.90;;;;;;5045273;28;20183;-67
2023/07/21 04:38:49;;;;;;;3.73;1.73;;;16.00;99.90;;;;;;5050894;28;20532;-67
2023/07/21 04:41:14;;;;;;;3.30;2.30;;;16.20;99.90;;;;;;5055058;28;20208;-66
2023/07/21 04:43:40;;;;;;;3.43;2.10;;;16.50;99.90;;;;;;5036266;28;20196;-66
2023/07/21 04:46:06;;;;;;;2.50;1.83;;;16.80;99.90;;;;;;5047890;28;20230;-68
2023/07/21 04:48:31;;;;;;;2.83;2.63;;;16.90;99.90;;;;;;5029905;28;20181;-67
2023/07/21 04:50:57;;;;;;;2.20;2.00;;;17.00;99.90;;;;;;5042767;28;20184;-67
2023/07/21 04:53:23;;;;;;;3.50;2.00;;;17.20;99.90;;;;;;5047307;28;20177;-68
2023/07/21 04:55:54;;;;;;;7.10;2.37;;;17.20;99.90;;;;;;5049466;28;20783;-65
2023/07/21 04:58:19;;;;;;;2.57;2.20;;;17.30;99.90;;;;;;5044850;28;20188;-66
2023/07/21 05:00:45;;;;;;;5.53;2.40;;;17.50;99.90;;;;;;5039509;28;20425;-68
2023/07/21 05:03:10;;;;;;;3.10;1.73;;;17.90;99.90;;;;;;5041567;28;20209;-67
2023/07/21 05:05:37;;;;;;;2.63;1.90;;;18.30;99.90;;;;;;5043105;28;20181;-68
2023/07/21 05:08:03;;;;;;;3.97;2.17;;;18.70;99.90;;;;;;5042089;28;20178;-66
2023/07/21 05:10:30;;;;;;;4.00;2.77;;;19.00;99.90;;;;;;5052466;28;20416;-66
2023/07/21 05:12:57;;;;;;;1.80;1.70;;;18.90;99.90;;;;;;5044620;28;20448;-67
2023/07/21 05:15:24;;;;;;;2.67;2.47;;;18.60;99.90;;;;;;5038119;28;20485;-67
2023/07/21 05:17:50;;;;;;;2.43;2.13;;;18.30;99.90;;;;;;5033963;28;20439;-66
2023/07/21 05:20:15;;;;;;;2.63;2.40;;;18.40;99.90;;;;;;5032071;28;20456;-66
2023/07/21 05:22:41;;;;;;;4.17;2.60;;;18.60;99.90;;;;;;5026616;28;20247;-67
2023/07/21 05:25:09;;;;;;;4.70;2.57;;;18.40;99.90;;;;;;5029759;28;20187;-66
2023/07/21 05:27:34;;;;;;;3.90;3.50;;;18.20;99.90;;;;;;5021963;28;20532;-67
2023/07/21 05:30:00;;;;;;;4.33;2.57;;;18.20;99.90;;;;;;5034171;28;20417;-67
2023/07/21 05:32:26;;;;;;;3.40;2.17;;;18.30;99.90;;;;;;5056490;28;20209;-68
2023/07/21 05:34:51;;;;;;;3.77;2.60;;;18.00;99.90;;;;;;5034828;28;20171;-67
2023/07/21 05:37:17;;;;;;;4.47;2.20;;;17.80;99.90;;;;;;5039283;28;20179;-68
2023/07/21 05:39:43;;;;;;;4.50;2.73;;;17.50;99.90;;;;;;5024657;28;20268;-67
2023/07/21 05:42:09;;;;;;;4.30;2.40;;;17.50;99.90;;;;;;5045633;28;20634;-68
2023/07/21 05:44:34;;;;;;;3.57;2.90;;;17.40;99.90;;;;;;5019817;28;20462;-67
2023/07/21 05:47:01;;;;;;;3.90;2.30;;;17.60;99.90;;;;;;5041102;28;20778;-67
2023/07/21 05:49:26;;;;;;;2.30;2.03;;;17.60;99.90;;;;;;5046541;28;20173;-68
2023/07/21 05:51:53;;;;;;;4.27;2.50;;;17.80;99.90;;;;;;5047527;28;20506;-68
2023/07/21 05:54:19;;;;;;;5.73;2.33;;;17.80;99.90;;;;;;5045960;28;20188;-67
2023/07/21 05:56:45;;;;;;;3.40;2.40;;;17.60;99.90;;;;;;5041132;28;20789;-66
2023/07/21 05:59:17;;;;;;;3.20;2.27;;;17.60;99.90;;;;;;5109651;27;20569;-68
2023/07/21 06:01:42;;;;;;;3.67;2.10;;;17.70;99.90;;;;;;5099948;28;20959;-68
2023/07/21 06:04:09;;;;;;;3.10;2.13;;;17.70;99.90;;;;;;5074032;28;20206;-66
2023/07/21 06:06:34;;;;;;;3.10;2.80;;;17.40;99.90;;;;;;5074559;28;20522;-66
2023/07/21 06:09:00;;;;;;;2.63;2.10;;;17.50;99.90;;;;;;5100363;28;20509;-67
2023/07/21 06:11:26;;;;;;;6.30;2.30;;;17.40;99.90;;;;;;5101563;28;20201;-68
2023/07/21 06:13:53;;;;;;;2.27;2.00;;;17.50;99.90;;;;;;5095119;28;20180;-69
2023/07/21 06:16:18;;;;;;;3.57;2.00;;;17.70;99.90;;;;;;5093017;28;20450;-67
2023/07/21 06:18:45;;;;;;;3.80;2.57;;;17.80;99.90;;;;;;5107706;28;20968;-67
2023/07/21 06:21:13;;;;;;;3.53;2.43;;;18.00;99.90;;;;;;5106437;28;20231;-67
2023/07/21 06:23:39;;;;;;;3.07;2.67;;;17.70;99.90;;;;;;5101096;28;20407;-68
2023/07/21 06:26:05;;;;;;;5.90;2.27;;;17.70;99.90;;;;;;5088283;28;20465;-68
2023/07/21 06:28:30;;;;;;;5.83;2.50;;;17.70;99.90;;;;;;5103409;28;20709;-68
2023/07/21 06:30:56;;;;;;;3.10;2.40;;;17.90;99.90;;;;;;5108397;28;20184;-67
2023/07/21 06:33:22;;;;;;;3.47;2.87;;;17.90;99.90;;;;;;5096166;28;21047;-67
2023/07/21 06:35:50;;;;;;;4.87;2.40;;;17.90;99.90;;;;;;5069687;28;20916;-67
2023/07/21 06:38:15;;;;;;;5.27;2.70;;;18.00;99.90;;;;;;5068329;28;20507;-68
2023/07/21 06:40:41;;;;;;;3.00;2.70;;;17.80;99.90;;;;;;5073697;28;20419;-67
2023/07/21 06:43:07;;;;;;;5.00;2.10;;;18.00;99.90;;;;;;5079395;28;20200;-69
2023/07/21 06:45:33;;;;;;;4.17;3.30;;;17.80;99.90;;;;;;5080197;28;20657;-68
2023/07/21 06:47:59;;;;;;;3.33;2.67;;;17.70;99.90;;;;;;5074684;28;20425;-67
2023/07/21 06:50:25;;;;;;;8.10;2.80;;;17.70;99.90;;;;;;5083323;28;20539;-68
2023/07/21 06:52:51;;;;;;;7.20;3.73;;;17.60;99.90;;;;;;5092984;28;20536;-68
2023/07/21 06:55:16;;;;;;;4.90;4.30;;;17.70;99.90;;;;;;5070896;28;20484;-68
2023/07/21 06:57:42;;;;;;;4.90;4.40;;;17.70;99.90;;;;;;5074820;28;20211;-68
2023/07/21 07:00:08;;;;;;;5.80;4.10;;;17.60;99.90;;;;;;5075919;28;20174;-67
2023/07/21 07:02:34;;;;;;;5.90;4.23;;;17.70;99.90;;;;;;5076757;28;20303;-67
2023/07/21 07:05:00;;;;;;;4.80;3.13;;;17.80;99.90;;;;;;5074707;28;20423;-67
2023/07/21 07:07:27;;;;;;;7.30;3.87;;;17.90;99.90;;;;;;5071628;28;20177;-68
2023/07/21 07:09:53;;;;;;;4.87;3.77;;;17.90;99.90;;;;;;5065721;28;20187;-67
2023/07/21 07:12:19;;;;;;;6.07;4.10;;;17.90;99.90;;;;;;5071831;28;20911;-67
2023/07/21 07:14:46;;;;;;;7.20;4.57;;;18.00;99.90;;;;;;5078795;28;20616;-67
2023/07/21 07:17:12;;;;;;;10.83;5.13;;;17.90;99.90;;;;;;5061817;28;20207;-68
2023/07/21 07:19:39;;;;;;;6.83;4.50;;;18.00;99.90;;;;;;5078430;28;20415;-68
2023/07/21 07:22:08;;;;;;;4.13;3.73;;;17.90;99.90;;;;;;5066341;28;20425;-73
2023/07/21 07:24:34;;;;;;;5.53;4.10;;;17.80;99.90;;;;;;5055990;28;20409;-71
2023/07/21 07:27:00;;;;;;;6.60;4.30;;;17.80;99.90;;;;;;5059483;28;20446;-71
2023/07/21 07:29:26;;;;;;;5.20;4.00;;;17.70;99.90;;;;;;5072504;28;20787;-72
2023/07/21 07:31:52;;;;;;;4.93;3.40;;;17.70;99.90;;;;;;5067995;28;20208;-67
2023/07/21 07:34:18;;;;;;;8.23;4.37;;;17.70;99.90;;;;;;5068597;28;20898;-67
2023/07/21 07:36:44;;;;;;;4.60;4.20;;;17.80;99.90;;;;;;5072035;28;20422;-67
2023/07/21 07:39:12;;;;;;;5.43;4.87;;;17.80;99.90;;;;;;5057321;28;20214;-67
2023/07/21 07:41:38;;;;;;;5.70;4.00;;;18.00;99.90;;;;;;5058751;28;20657;-66
2023/07/21 07:44:06;;;;;;;8.50;4.53;;;18.10;99.90;;;;;;5059492;28;20413;-68
2023/07/21 07:46:32;;;;;;;5.90;4.60;;;18.10;99.90;;;;;;5064794;28;20934;-67
2023/07/21 07:48:57;;;;;;;6.23;4.00;;;18.30;99.90;;;;;;5069868;28;20420;-66
2023/07/21 07:51:23;;;;;;;4.80;4.30;;;18.30;99.90;;;;;;5068259;28;20616;-67
2023/07/21 07:53:49;;;;;;;6.43;3.43;;;18.40;99.90;;;;;;5061180;28;20272;-67
2023/07/21 07:56:17;;;;;;;4.80;3.63;;;18.70;99.90;;;;;;5062462;28;20183;-67
2023/07/21 07:58:43;;;;;;;5.03;3.10;;;18.90;99.90;;;;;;5055539;28;20210;-66
2023/07/21 08:01:13;;;;;;;6.70;3.20;;;18.90;99.90;;;;;;5063888;28;20409;-66
2023/07/21 08:03:43;;;;;;;5.50;4.17;;;18.80;99.90;;;;;;5062401;28;20542;-66
2023/07/21 08:06:11;;;;;;;4.63;3.93;;;19.10;99.90;;;;;;5073237;28;20915;-66
2023/07/21 08:08:37;;;;;;;5.10;3.67;;;19.30;99.90;;;;;;5059828;28;20492;-66
2023/07/21 08:11:03;;;;;;;7.17;3.50;;;19.00;99.90;;;;;;5057956;28;20929;-66
2023/07/21 08:13:28;;;;;;;4.20;3.07;;;18.80;99.90;;;;;;5062213;28;20182;-68
2023/07/21 08:15:54;;;;;;;8.53;4.33;;;18.70;99.90;;;;;;5058175;28;20536;-67
2023/07/21 08:18:20;;;;;;;4.67;3.87;;;19.00;99.90;;;;;;5054097;28;20225;-67
2023/07/21 08:20:49;;;;;;;4.10;3.70;;;19.40;99.90;;;;;;5056140;28;20179;-67
2023/07/21 08:23:15;;;;;;;5.30;4.80;;;19.50;99.90;;;;;;5057372;28;20209;-66
2023/07/21 08:25:41;;;;;;;5.87;4.97;;;19.60;99.90;;;;;;5055281;28;20402;-67
2023/07/21 08:28:08;;;;;;;8.83;4.33;;;19.70;99.90;;;;;;5052278;28;20723;-71
2023/07/21 08:30:35;;;;;;;13.80;4.30;;;19.20;99.90;;;;;;5064667;28;20948;-67
2023/07/21 08:33:02;;;;;;;5.27;4.40;;;19.60;99.90;;;;;;5063144;28;20507;-67
2023/07/21 08:35:28;;;;;;;6.20;4.20;;;19.90;99.90;;;;;;5068917;28;20428;-68
2023/07/21 08:37:55;;;;;;;7.43;4.63;;;20.00;99.90;;;;;;5070357;28;20445;-67
2023/07/21 08:40:22;;;;;;;4.50;3.83;;;20.50;99.90;;;;;;5064156;28;20168;-67
2023/07/21 08:42:50;;;;;;;6.03;3.90;;;20.30;99.90;;;;;;5061994;28;20425;-68
2023/07/21 08:45:16;;;;;;;6.20;4.20;;;20.20;99.90;;;;;;5058073;28;20506;-69
2023/07/21 08:47:41;;;;;;;6.33;4.27;;;20.20;99.90;;;;;;5066520;28;20417;-66
2023/07/21 08:50:07;;;;;;;4.80;4.10;;;20.80;99.90;;;;;;5067065;28;20226;-68
2023/07/21 08:52:33;;;;;;;6.50;4.47;;;20.70;99.90;;;;;;5067566;28;20200;-67
2023/07/21 08:55:00;;;;;;;6.00;4.33;;;20.30;99.90;;;;;;5068024;28;20971;-67
2023/07/21 08:57:25;;;;;;;4.67;4.20;;;20.30;99.90;;;;;;5052619;28;20270;-67
2023/07/21 08:59:54;;;;;;;6.60;4.07;;;20.30;99.90;;;;;;5059615;28;20413;-67
2023/07/21 09:02:40;;;;;;;4.00;3.60;;;20.60;99.90;;;;;;5057857;28;20561;-66
2023/07/21 09:05:06;;;;;;;4.03;3.60;;;20.50;99.90;;;;;;5055604;28;20440;-67
2023/07/21 09:07:32;;;;;;;5.87;2.97;;;20.50;99.90;;;;;;5065331;28;20443;-67
2023/07/21 09:09:57;;;;;;;4.27;2.80;;;20.20;99.90;;;;;;5068151;28;20448;-67
2023/07/21 09:12:34;;;;;;;4.77;2.60;;;20.00;99.90;;;;;;5052664;28;20190;-67
2023/07/21 09:15:08;;;;;;;5.47;3.37;;;20.00;99.90;;;;;;5059036;28;20170;-67
2023/07/21 09:17:34;;;;;;;3.20;2.73;;;20.30;99.90;;;;;;5062816;28;20457;-67
2023/07/21 09:20:04;;;;;;;8.27;2.63;;;20.40;99.90;;;;;;5063687;28;20404;-67
2023/07/21 09:22:29;;;;;;;2.97;2.13;;;20.30;99.90;;;;;;5080234;28;20246;-67
2023/07/21 09:24:55;;;;;;;9.63;4.07;;;20.40;99.90;;;;;;5084386;28;20843;-67
2023/07/21 09:27:21;;;;;;;3.70;3.17;;;20.20;99.90;;;;;;5080560;28;20175;-66
2023/07/21 09:29:46;;;;;;;6.13;3.77;;;20.40;99.90;;;;;;5086359;28;20194;-66
2023/07/21 09:32:19;;;;;;;7.90;4.80;;;20.40;99.90;;;;;;5079809;28;20200;-66
2023/07/21 09:35:01;;;;;;;7.63;3.30;;;20.40;99.90;;;;;;5066264;28;20280;-66
2023/07/21 09:37:28;;;;;;;4.73;3.30;;;20.00;99.90;;;;;;5081527;28;21066;-67
2023/07/21 09:39:59;;;;;;;8.20;3.60;;;19.90;99.90;;;;;;5077992;28;20433;-66
2023/07/21 09:42:27;;;;;;;5.97;3.57;;;20.00;99.90;;;;;;5084206;28;20442;-65
2023/07/21 09:44:53;;;;;;;5.63;3.43;;;20.10;99.90;;;;;;5056791;28;20463;-66
2023/07/21 09:47:20;;;;;;;3.70;2.70;;;20.10;99.90;;;;;;5078416;28;20448;-66
2023/07/21 09:49:48;;;;;;;3.23;2.90;;;20.10;99.90;;;;;;5081355;28;20415;-67
2023/07/21 09:52:15;;;;;;;3.77;2.63;;;20.30;99.90;;;;;;5081284;28;20456;-66
2023/07/21 09:55:01;;;;;;;4.73;3.00;;;20.40;99.90;;;;;;5073101;28;20789;-66
2023/07/21 09:57:29;;;;;;;4.70;2.80;;;20.10;99.90;;;;;;5091789;28;21044;-67
2023/07/21 09:59:59;;;;;;;5.03;2.43;;;20.30;99.90;;;;;;5082808;28;20415;-68
2023/07/21 10:02:25;;;;;;;4.33;2.47;;;20.60;99.90;;;;;;5073060;28;21034;-68
2023/07/21 10:04:51;;;;;;;5.63;2.60;;;20.80;99.90;;;;;;5085724;28;20792;-67
2023/07/21 10:07:17;;;;;;;4.67;3.17;;;21.00;99.90;;;;;;5085196;28;20805;-68
2023/07/21 10:09:47;;;;;;;5.00;2.90;;;21.00;99.90;;;;;;5087700;28;20554;-67
2023/07/21 10:12:16;;;;;;;4.33;3.00;;;20.50;99.90;;;;;;5089848;28;20796;-67
2023/07/21 10:14:44;;;;;;;5.20;2.87;;;20.50;99.90;;;;;;5085936;28;20413;-66
2023/07/21 10:17:11;;;;;;;3.73;2.87;;;20.60;99.90;;;;;;5077694;28;20799;-67
2023/07/21 10:19:41;;;;;;;3.00;2.70;;;20.50;99.90;;;;;;5065062;28;20804;-66
2023/07/21 10:22:13;;;;;;;6.63;3.07;;;20.30;99.90;;;;;;5089644;28;20434;-66
2023/07/21 10:24:45;;;;;;;4.17;3.60;;;20.30;99.90;;;;;;5065021;28;20953;-65
2023/07/21 10:27:20;;;;;;;4.60;3.17;;;20.70;99.90;;;;;;5087485;28;20409;-65
2023/07/21 10:29:46;;;;;;;4.00;3.07;;;20.60;99.90;;;;;;5086816;28;20506;-68
2023/07/21 10:32:12;;;;;;;4.00;2.37;;;21.10;99.90;;;;;;5085041;28;20517;-66
2023/07/21 10:34:42;;;;;;;4.37;2.70;;;21.40;99.90;;;;;;5088333;28;20507;-68
2023/07/21 10:37:08;;;;;;;4.90;2.57;;;21.60;99.90;;;;;;5083668;28;20309;-66
2023/07/21 10:39:37;;;;;;;3.50;3.20;;;21.30;99.90;;;;;;5085329;28;21130;-66
2023/07/21 10:42:06;;;;;;;7.33;4.33;;;21.60;99.90;;;;;;5056274;28;20196;-67
2023/07/21 10:44:46;;;;;;;5.87;3.43;;;21.80;99.90;;;;;;5052295;28;20458;-66
2023/07/21 10:47:20;;;;;;;4.13;3.27;;;21.90;99.90;;;;;;5080372;28;20421;-68
2023/07/21 10:49:47;;;;;;;5.60;4.97;;;22.20;99.90;;;;;;5056922;28;20802;-67
2023/07/21 10:52:14;;;;;;;5.50;3.10;;;22.30;99.90;;;;;;5083149;28;20450;-66
2023/07/21 10:54:43;;;;;;;5.93;3.20;;;22.30;99.90;;;;;;5081680;28;20421;-68
2023/07/21 10:57:08;;;;;;;16.00;12.57;;;22.00;99.90;;;;;;5086732;28;21238;-67
2023/07/21 10:59:35;;;;;;;5.33;4.47;;;21.90;99.90;;;;;;5085611;28;20429;-66
2023/07/21 11:02:03;;;;;;;2.20;1.90;;;21.80;99.90;;;;;;5088413;28;20311;-66
2023/07/21 11:04:30;;;;;;;4.90;3.87;;;22.00;99.90;;;;;;5094796;28;20416;-67
2023/07/21 11:06:58;;;;;;;4.20;2.50;;;22.10;99.90;;;;;;5076198;28;20485;-65
2023/07/21 11:09:25;;;;;;;4.50;2.40;;;22.30;99.90;;;;;;5076189;28;20433;-66
2023/07/21 11:11:52;;;;;;;5.10;3.67;;;22.20;99.90;;;;;;5070739;28;20499;-66
2023/07/21 11:14:26;;;;;;;6.60;4.87;;;22.10;99.90;;;;;;5069107;28;20438;-65
2023/07/21 11:16:57;;;;;;;2.77;1.73;;;21.90;99.90;;;;;;5079534;28;20433;-66
2023/07/21 11:19:26;;;;;;;2.50;2.30;;;21.80;99.90;;;;;;5073357;28;20456;-66
2023/07/21 11:21:52;;;;;;;5.07;3.00;;;21.40;99.90;;;;;;5084466;28;20459;-66
2023/07/21 11:24:19;;;;;;;5.70;2.67;;;21.50;99.90;;;;;;5081412;28;20440;-66
2023/07/21 11:26:49;;;;;;;4.93;2.13;;;21.60;99.90;;;;;;5077043;28;20431;-66
2023/07/21 11:29:16;;;;;;;5.37;2.30;;;21.80;99.90;;;;;;5067833;28;20611;-67
2023/07/21 11:31:42;;;;;;;8.23;5.17;;;22.00;99.90;;;;;;5071751;28;20455;-66
2023/07/21 11:34:22;;;;;;;6.70;2.83;;;22.10;99.90;;;;;;5090795;28;20429;-65
2023/07/21 11:36:52;;;;;;;7.50;2.70;;;22.00;99.90;;;;;;5081937;28;20540;-68
2023/07/21 11:39:20;;;;;;;1.70;1.60;;;21.90;99.90;;;;;;5079766;28;20456;-66
2023/07/21 11:41:49;;;;;;;4.60;3.17;;;21.60;99.90;;;;;;5074583;28;20455;-66
2023/07/21 11:44:17;;;;;;;3.37;2.10;;;21.50;99.90;;;;;;5076999;28;20424;-66
2023/07/21 11:46:54;;;;;;;3.40;2.00;;;21.40;99.90;;;;;;5081983;28;20425;-64
2023/07/21 11:49:22;;;;;;;4.70;2.30;;;21.30;99.90;;;;;;5085909;28;20815;-65
2023/07/21 11:51:50;;;;;;;4.27;2.30;;;21.00;99.90;;;;;;5082963;28;20485;-66
2023/07/21 11:54:24;;;;;;;2.30;2.10;;;21.10;99.90;;;;;;5088342;28;21020;-66
2023/07/21 11:56:52;;;;;;;8.43;5.97;;;21.00;99.90;;;;;;5084908;28;20944;-66
2023/07/21 11:59:19;;;;;;;3.67;2.20;;;21.00;99.90;;;;;;5093323;28;20817;-65
2023/07/21 12:01:46;;;;;;;2.17;1.97;;;20.80;99.90;;;;;;5073286;28;21005;-66
2023/07/21 12:04:11;;;;;;;7.37;2.70;;;20.70;99.90;;;;;;5069326;28;20999;-65
2023/07/21 12:06:38;;;;;;;3.27;1.90;;;20.50;99.90;;;;;;5078157;28;20518;-66
2023/07/21 12:09:09;;;;;;;4.50;2.20;;;20.50;99.90;;;;;;5083449;28;20237;-66
2023/07/21 12:11:35;;;;;;;3.80;2.43;;;20.60;99.90;;;;;;5071149;28;20467;-67
2023/07/21 12:14:01;;;;;;;3.43;2.23;;;20.40;99.90;;;;;;5064219;28;20453;-67
2023/07/21 12:16:27;;;;;;;3.53;2.30;;;20.50;99.90;;;;;;5068127;28;20411;-66
2023/07/21 12:18:53;;;;;;;2.00;1.83;;;20.70;99.90;;;;;;5081767;28;20517;-66
2023/07/21 12:21:19;;;;;;;1.97;1.77;;;20.60;99.90;;;;;;5084599;28;20385;-66
2023/07/21 12:23:45;;;;;;;1.67;1.57;;;20.50;99.90;;;;;;5083962;28;20253;-65
2023/07/21 12:26:10;;;;;;;2.97;2.13;;;20.50;99.90;;;;;;5084294;28;20226;-65
2023/07/21 12:28:36;;;;;;;4.10;1.70;;;20.60;99.90;;;;;;5076205;28;20411;-65
2023/07/21 12:31:02;;;;;;;2.90;1.70;;;20.70;99.90;;;;;;5080851;28;20208;-66
2023/07/21 12:33:28;;;;;;;1.70;1.60;;;20.70;99.90;;;;;;5085921;28;20714;-65
2023/07/21 12:35:54;;;;;;;4.50;2.23;;;20.70;99.90;;;;;;5080399;28;20497;-66
2023/07/21 12:38:20;;;;;;;3.73;1.77;;;20.70;99.90;;;;;;5084306;28;20701;-66
2023/07/21 12:40:47;;;;;;;2.20;1.90;;;20.80;99.90;;;;;;5083994;28;20440;-65
2023/07/21 12:43:12;;;;;;;2.10;1.63;;;20.70;99.90;;;;;;5083233;28;20447;-65
2023/07/21 12:45:39;;;;;;;2.63;1.73;;;20.70;99.90;;;;;;5082332;28;20425;-65